createdAt,value
2019-05-03T00:00:10.986Z,17.30
2019-05-03T00:02:52.175Z,17.40
2019-05-03T00:05:36.598Z,17.50
2019-05-03T00:08:14.027Z,17.60
2019-05-03T00:10:48.239Z,17.60
2019-05-03T00:13:23.611Z,17.60
2019-05-03T00:16:16.274Z,17.70
2019-05-03T00:18:52.720Z,17.90
2019-05-03T00:21:28.019Z,18.00
2019-05-03T00:24:03.341Z,18.20
2019-05-03T00:26:39.026Z,18.30
2019-05-03T00:29:15.672Z,18.50
2019-05-03T00:31:53.540Z,18.70
2019-05-03T00:34:30.009Z,18.70
2019-05-03T00:37:06.230Z,18.80
2019-05-03T00:39:43.164Z,18.80
2019-05-03T00:42:22.782Z,19.00
2019-05-03T00:44:59.760Z,19.10
2019-05-03T00:47:33.628Z,19.20
2019-05-03T00:50:12.563Z,19.30
2019-05-03T00:52:48.435Z,19.40
2019-05-03T00:55:23.069Z,19.70
2019-05-03T00:57:59.459Z,19.80
2019-05-03T01:00:36.745Z,19.70
2019-05-03T01:03:12.576Z,19.80
2019-05-03T01:05:49.259Z,20.00
2019-05-03T01:08:25.672Z,20.10
2019-05-03T01:11:07.252Z,20.10
2019-05-03T01:13:46.956Z,20.10
2019-05-03T01:16:26.714Z,20.20
2019-05-03T01:19:05.772Z,20.50
2019-05-03T01:21:42.839Z,20.60
2019-05-03T01:24:21.632Z,20.60
2019-05-03T01:26:57.595Z,20.80
2019-05-03T01:29:43.678Z,21.00
2019-05-03T01:32:22.113Z,21.20
2019-05-03T01:34:59.383Z,21.20
2019-05-03T01:37:38.919Z,21.10
2019-05-03T01:40:19.643Z,21.20
2019-05-03T01:42:57.265Z,21.20
2019-05-03T01:45:35.901Z,21.40
2019-05-03T01:48:41.508Z,21.60
2019-05-03T01:51:19.397Z,21.90
2019-05-03T01:53:56.987Z,21.90
2019-05-03T01:56:35.237Z,21.90
2019-05-03T01:59:12.772Z,21.90
2019-05-03T02:01:56.040Z,22.00
2019-05-03T02:04:43.231Z,21.80
2019-05-03T02:07:22.336Z,22.00
2019-05-03T02:10:00.192Z,22.20
2019-05-03T02:12:42.157Z,22.40
2019-05-03T02:15:22.339Z,22.30
2019-05-03T02:18:05.975Z,22.30
2019-05-03T02:20:46.817Z,22.50
2019-05-03T02:23:25.076Z,22.50
2019-05-03T02:26:02.902Z,22.70
2019-05-03T02:28:38.745Z,22.90
2019-05-03T02:31:16.661Z,22.70
2019-05-03T02:33:55.194Z,22.60
2019-05-03T02:36:43.878Z,22.80
2019-05-03T02:39:22.635Z,22.60
2019-05-03T02:42:06.173Z,22.80
2019-05-03T02:44:39.650Z,23.00
2019-05-03T02:47:29.026Z,23.20
2019-05-03T02:50:07.418Z,23.20
2019-05-03T02:52:45.773Z,23.40
2019-05-03T02:55:26.393Z,23.40
2019-05-03T02:58:05.731Z,23.60
2019-05-03T03:01:07.882Z,23.80
2019-05-03T03:03:48.704Z,23.70
2019-05-03T03:06:28.022Z,23.90
2019-05-03T03:09:07.422Z,23.90
2019-05-03T03:12:11.284Z,24.10
2019-05-03T03:14:54.933Z,24.10
2019-05-03T03:17:32.512Z,23.90
2019-05-03T03:20:16.128Z,24.10
2019-05-03T03:22:55.537Z,24.00
2019-05-03T03:25:36.150Z,24.20
2019-05-03T03:28:15.813Z,24.10
2019-05-03T03:31:17.663Z,24.30
2019-05-03T03:33:51.692Z,24.40
2019-05-03T03:36:44.694Z,24.50
2019-05-03T03:39:15.102Z,24.50
2019-05-03T03:41:55.644Z,24.70
2019-05-03T03:44:31.687Z,24.90
2019-05-03T03:47:09.324Z,25.00
2019-05-03T03:49:47.706Z,25.10
2019-05-03T03:52:25.545Z,25.20
2019-05-03T03:55:11.347Z,25.00
2019-05-03T03:57:57.841Z,24.90
2019-05-03T04:00:36.236Z,25.10
2019-05-03T04:03:20.015Z,25.10
2019-05-03T04:06:01.897Z,25.00
2019-05-03T04:08:45.127Z,25.00
2019-05-03T04:11:25.934Z,24.90
2019-05-03T04:14:16.101Z,24.70
2019-05-03T04:17:09.220Z,24.60
2019-05-03T04:19:49.792Z,24.80
2019-05-03T04:22:25.693Z,24.80
2019-05-03T04:25:12.139Z,24.90
2019-05-03T04:30:46.149Z,25.20
2019-05-03T04:33:26.966Z,25.60
2019-05-03T04:36:08.714Z,25.50
2019-05-03T04:38:45.357Z,25.70
2019-05-03T04:41:32.484Z,25.60
2019-05-03T04:44:12.084Z,25.60
2019-05-03T04:46:55.090Z,25.30
2019-05-03T04:49:35.957Z,25.70
2019-05-03T04:52:16.526Z,25.90
2019-05-03T04:55:06.357Z,25.50
2019-05-03T04:57:50.269Z,25.70
2019-05-03T05:00:31.554Z,25.60
2019-05-03T05:03:16.702Z,25.40
2019-05-03T05:05:59.559Z,25.60
2019-05-03T05:08:40.115Z,25.60
2019-05-03T05:11:19.639Z,25.40
2019-05-03T05:13:56.726Z,25.70
2019-05-03T05:16:35.423Z,25.80
2019-05-03T05:19:15.532Z,25.70
2019-05-03T05:22:05.822Z,25.60
2019-05-03T05:27:57.220Z,25.70
2019-05-03T05:30:35.702Z,25.60
2019-05-03T05:33:24.977Z,25.60
2019-05-03T05:35:59.343Z,25.70
2019-05-03T05:38:37.543Z,25.70
2019-05-03T05:41:24.459Z,26.10
2019-05-03T05:44:01.817Z,25.90
2019-05-03T05:46:45.789Z,25.70
2019-05-03T05:49:46.588Z,26.10
2019-05-03T05:52:25.026Z,26.10
2019-05-03T05:55:06.163Z,26.10
2019-05-03T05:58:02.910Z,26.40
2019-05-03T06:00:35.942Z,26.80
2019-05-03T06:03:14.886Z,26.60
2019-05-03T06:05:50.084Z,26.60
2019-05-03T06:08:40.921Z,26.00
2019-05-03T06:11:34.775Z,26.50
2019-05-03T06:14:20.651Z,26.90
2019-05-03T06:16:58.927Z,26.90
2019-05-03T06:19:44.887Z,26.70
2019-05-03T06:22:27.345Z,26.70
2019-05-03T06:25:08.465Z,26.70
2019-05-03T06:27:48.562Z,26.50
2019-05-03T06:30:27.184Z,26.50
2019-05-03T06:33:05.377Z,26.60
2019-05-03T06:35:45.332Z,26.70
2019-05-03T06:38:24.259Z,26.70
2019-05-03T06:41:08.900Z,26.40
2019-05-03T06:43:48.380Z,26.80
2019-05-03T06:46:49.593Z,27.20
2019-05-03T06:49:34.451Z,27.30
2019-05-03T06:52:19.717Z,27.40
2019-05-03T06:55:08.536Z,27.20
2019-05-03T06:57:49.623Z,27.20
2019-05-03T07:00:40.051Z,27.40
2019-05-03T07:03:36.778Z,26.70
2019-05-03T07:06:33.293Z,26.70
2019-05-03T07:09:02.998Z,27.20
2019-05-03T07:11:39.437Z,27.20
2019-05-03T07:14:26.283Z,27.10
2019-05-03T07:17:05.609Z,27.00
2019-05-03T07:19:45.913Z,27.00
2019-05-03T07:22:24.325Z,27.10
2019-05-03T07:25:08.599Z,26.90
2019-05-03T07:27:49.412Z,26.60
2019-05-03T07:30:36.938Z,26.90
2019-05-03T07:33:15.082Z,27.30
2019-05-03T07:35:54.690Z,27.00
2019-05-03T07:38:35.025Z,26.90
2019-05-03T07:41:11.006Z,27.30
2019-05-03T07:43:48.099Z,27.70
2019-05-03T07:46:28.525Z,27.50
2019-05-03T07:49:07.055Z,27.30
2019-05-03T07:51:58.830Z,27.30
2019-05-03T07:54:47.461Z,27.00
2019-05-03T07:57:48.402Z,26.80
2019-05-03T08:00:25.359Z,26.90
2019-05-03T08:03:02.179Z,27.10
2019-05-03T08:05:42.807Z,27.30
2019-05-03T08:08:25.040Z,27.10
2019-05-03T08:11:07.961Z,27.20
2019-05-03T08:13:58.683Z,27.20
2019-05-03T08:16:39.501Z,27.10
2019-05-03T08:19:16.851Z,27.20
2019-05-03T08:22:04.748Z,27.10
2019-05-03T08:24:41.989Z,27.00
2019-05-03T08:27:35.447Z,27.00
2019-05-03T08:30:17.145Z,26.80
2019-05-03T08:33:08.902Z,26.80
2019-05-03T08:35:48.083Z,26.70
2019-05-03T08:38:27.939Z,26.90
2019-05-03T08:41:05.523Z,27.10
2019-05-03T08:43:45.409Z,27.00
2019-05-03T08:46:25.365Z,27.00
2019-05-03T08:49:02.178Z,27.00
2019-05-03T08:51:36.708Z,27.10
2019-05-03T08:54:12.408Z,27.10
2019-05-03T08:56:50.422Z,26.90
2019-05-03T08:59:29.940Z,26.70
2019-05-03T09:02:03.486Z,26.60
2019-05-03T09:04:43.023Z,26.40
2019-05-03T09:07:19.282Z,26.20
2019-05-03T09:10:06.000Z,26.30
2019-05-03T09:13:03.280Z,26.50
2019-05-03T09:15:38.435Z,26.30
2019-05-03T09:18:17.552Z,26.20
2019-05-03T09:20:55.473Z,26.10
2019-05-03T09:23:31.556Z,25.90
2019-05-03T09:26:08.598Z,25.90
2019-05-03T09:28:46.502Z,25.90
2019-05-03T09:31:26.665Z,25.60
2019-05-03T09:34:08.023Z,25.50
2019-05-03T09:36:50.023Z,25.60
2019-05-03T09:39:25.857Z,25.30
2019-05-03T09:42:04.732Z,25.30
2019-05-03T09:44:40.545Z,25.10
2019-05-03T09:47:19.041Z,25.20
2019-05-03T09:49:55.875Z,25.20
2019-05-03T09:52:31.189Z,25.10
2019-05-03T09:55:17.855Z,25.10
2019-05-03T09:57:55.349Z,24.90
2019-05-03T10:00:31.293Z,24.90
2019-05-03T10:03:08.994Z,24.80
2019-05-03T10:05:45.891Z,24.80
2019-05-03T10:08:25.405Z,24.80
2019-05-03T10:11:15.983Z,24.70
2019-05-03T10:13:56.449Z,24.60
2019-05-03T10:16:35.095Z,24.40
2019-05-03T10:19:16.245Z,24.40
2019-05-03T10:21:56.643Z,24.30
2019-05-03T10:24:39.566Z,24.20
2019-05-03T10:27:15.307Z,24.10
2019-05-03T10:29:50.732Z,24.00
2019-05-03T10:32:27.351Z,24.00
2019-05-03T10:35:08.708Z,23.90
2019-05-03T10:37:50.899Z,23.80
2019-05-03T10:40:35.575Z,23.70
2019-05-03T10:43:16.419Z,23.70
2019-05-03T10:45:58.663Z,23.60
2019-05-03T10:48:35.582Z,23.60
2019-05-03T10:51:11.382Z,23.60
2019-05-03T10:53:49.611Z,23.30
2019-05-03T10:56:26.871Z,23.40
2019-05-03T10:59:05.999Z,23.40
2019-05-03T11:01:57.565Z,23.20
2019-05-03T11:04:36.153Z,23.10
2019-05-03T11:07:17.712Z,23.10
2019-05-03T11:09:55.177Z,23.20
2019-05-03T11:12:34.739Z,23.10
2019-05-03T11:15:10.201Z,22.90
2019-05-03T11:17:48.316Z,22.80
2019-05-03T11:20:40.566Z,22.60
2019-05-03T11:23:16.136Z,22.60
2019-05-03T11:25:55.422Z,22.70
2019-05-03T11:28:32.410Z,22.70
2019-05-03T11:31:27.081Z,22.50
2019-05-03T11:34:03.657Z,22.40
2019-05-03T11:36:58.242Z,22.50
2019-05-03T11:39:34.446Z,22.40
2019-05-03T11:42:12.841Z,22.30
2019-05-03T11:44:49.957Z,22.30
2019-05-03T11:47:25.598Z,22.20
2019-05-03T11:50:01.666Z,22.20
2019-05-03T11:52:37.995Z,22.00
2019-05-03T11:55:15.943Z,21.90
2019-05-03T11:57:53.550Z,21.90
2019-05-03T12:00:30.129Z,22.00
2019-05-03T12:03:11.273Z,22.10
2019-05-03T12:05:56.610Z,21.90
2019-05-03T12:08:36.667Z,21.80
2019-05-03T12:11:12.244Z,21.80
2019-05-03T12:13:47.889Z,21.50
2019-05-03T12:16:48.468Z,21.50
2019-05-03T12:19:16.432Z,21.50
2019-05-03T12:21:46.297Z,21.50
2019-05-03T12:24:26.551Z,21.50
2019-05-03T12:27:07.431Z,21.20
2019-05-03T12:29:47.810Z,21.30
2019-05-03T12:32:36.446Z,21.40
2019-05-03T12:35:15.176Z,21.30
2019-05-03T12:37:50.146Z,21.20
2019-05-03T12:40:26.478Z,21.20
2019-05-03T12:43:05.738Z,21.10
2019-05-03T12:45:40.428Z,20.90
2019-05-03T12:48:18.522Z,20.70
2019-05-03T12:51:02.119Z,20.70
2019-05-03T12:53:40.145Z,20.50
2019-05-03T12:56:24.312Z,20.60
2019-05-03T12:59:17.734Z,20.50
2019-05-03T13:01:59.331Z,20.50
2019-05-03T13:04:41.753Z,20.50
2019-05-03T13:07:28.822Z,20.40
2019-05-03T13:10:07.412Z,20.30
2019-05-03T13:12:50.704Z,20.50
2019-05-03T13:15:21.115Z,20.40
2019-05-03T13:18:17.683Z,20.40
2019-05-03T13:20:59.333Z,20.40
2019-05-03T13:23:39.611Z,20.30
2019-05-03T13:26:25.556Z,20.10
2019-05-03T13:29:05.891Z,20.10
2019-05-03T13:32:02.225Z,20.00
2019-05-03T13:34:42.041Z,20.00
2019-05-03T13:37:57.374Z,20.10
2019-05-03T13:40:47.551Z,20.00
2019-05-03T13:43:35.110Z,20.00
2019-05-03T13:46:18.413Z,19.80
2019-05-03T13:48:59.170Z,19.60
2019-05-03T13:51:42.477Z,19.70
2019-05-03T13:54:25.485Z,19.60
2019-05-03T13:57:04.899Z,19.70
2019-05-03T13:59:44.687Z,19.80
2019-05-03T14:02:22.779Z,19.90
2019-05-03T14:04:58.677Z,19.80
2019-05-03T14:07:39.430Z,19.70
2019-05-03T14:10:19.088Z,19.60
2019-05-03T14:13:00.538Z,19.70
2019-05-03T14:15:40.316Z,19.60
2019-05-03T14:18:26.650Z,19.70
2019-05-03T14:21:19.282Z,19.60
2019-05-03T14:24:15.752Z,19.80
2019-05-03T14:26:51.769Z,19.70
2019-05-03T14:29:41.181Z,19.70
2019-05-03T14:35:21.721Z,19.70
2019-05-03T14:38:14.946Z,19.90
2019-05-03T14:40:57.776Z,19.80
2019-05-03T14:43:41.064Z,19.90
2019-05-03T14:46:30.060Z,19.80
2019-05-03T14:49:01.782Z,19.60
2019-05-03T14:51:45.605Z,19.40
2019-05-03T14:54:25.434Z,19.30
2019-05-03T14:57:12.030Z,19.30
2019-05-03T15:00:07.760Z,19.30
2019-05-03T15:02:57.913Z,19.30
2019-05-03T15:05:34.797Z,19.20
2019-05-03T15:08:14.882Z,19.20
2019-05-03T15:10:54.826Z,19.10
2019-05-03T15:13:31.075Z,18.90
2019-05-03T15:19:03.021Z,18.80
2019-05-03T15:21:47.729Z,18.80
2019-05-03T15:24:29.583Z,18.70
2019-05-03T15:27:05.173Z,18.80
2019-05-03T15:29:41.712Z,18.80
2019-05-03T15:32:27.042Z,18.70
2019-05-03T15:35:07.097Z,18.70
2019-05-03T15:37:45.527Z,18.70
2019-05-03T15:40:25.003Z,18.60
2019-05-03T15:43:05.373Z,18.50
2019-05-03T15:45:44.947Z,18.50
2019-05-03T15:48:29.501Z,18.40
2019-05-03T15:51:10.570Z,18.40
2019-05-03T15:53:48.469Z,18.50
2019-05-03T15:56:34.126Z,18.30
2019-05-03T15:59:27.826Z,18.30
2019-05-03T16:05:04.868Z,18.20
2019-05-03T16:07:42.153Z,18.10
2019-05-03T16:10:21.147Z,18.20
2019-05-03T16:12:58.475Z,18.20
2019-05-03T16:15:44.416Z,18.20
2019-05-03T16:18:21.449Z,18.20
2019-05-03T16:20:59.857Z,18.20
2019-05-03T16:23:38.821Z,18.10
2019-05-03T16:26:19.711Z,18.00
2019-05-03T16:28:56.685Z,18.10
2019-05-03T16:31:34.318Z,18.20
2019-05-03T16:34:11.523Z,18.30
2019-05-03T16:36:50.771Z,18.40
2019-05-03T16:39:28.534Z,18.40
2019-05-03T16:42:10.534Z,18.50
2019-05-03T16:47:44.811Z,18.40
2019-05-03T16:50:21.197Z,18.30
2019-05-03T16:52:57.651Z,18.00
2019-05-03T16:55:35.169Z,18.00
2019-05-03T16:58:14.959Z,18.00
2019-05-03T17:00:55.304Z,17.90
2019-05-03T17:03:40.786Z,17.90
2019-05-03T17:06:18.771Z,17.90
2019-05-03T17:09:14.500Z,17.80
2019-05-03T17:11:54.585Z,17.80
2019-05-03T17:14:30.286Z,17.90
2019-05-03T17:17:17.207Z,18.00
2019-05-03T17:19:57.252Z,18.20
2019-05-03T17:22:34.571Z,18.30
2019-05-03T17:25:12.547Z,18.20
2019-05-03T17:28:07.356Z,18.20
2019-05-03T17:30:44.749Z,18.30
2019-05-03T17:33:25.419Z,18.40
2019-05-03T17:36:04.939Z,18.40
2019-05-03T17:38:44.358Z,18.30
2019-05-03T17:41:25.594Z,18.30
2019-05-03T17:44:02.484Z,18.50
2019-05-03T17:46:36.503Z,18.50
2019-05-03T17:49:12.093Z,18.50
2019-05-03T17:51:55.434Z,18.30
2019-05-03T17:54:33.390Z,18.40
2019-05-03T17:57:26.739Z,18.40
2019-05-03T18:00:08.488Z,18.50
2019-05-03T18:02:48.065Z,18.30
2019-05-03T18:05:30.918Z,18.40
2019-05-03T18:08:18.751Z,18.40
2019-05-03T18:10:55.490Z,18.40
2019-05-03T18:13:32.679Z,18.40
2019-05-03T18:16:07.707Z,18.60
2019-05-03T18:18:47.599Z,19.00
2019-05-03T18:21:24.474Z,19.10
2019-05-03T18:24:01.130Z,19.10
2019-05-03T18:26:36.651Z,19.00
2019-05-03T18:29:12.266Z,18.80
2019-05-03T18:31:50.048Z,18.60
2019-05-03T18:34:27.379Z,18.70
2019-05-03T18:37:04.822Z,18.70
2019-05-03T18:39:45.234Z,18.60
2019-05-03T18:42:24.545Z,18.80
2019-05-03T18:45:01.449Z,18.80
2019-05-03T18:47:37.112Z,19.00
2019-05-03T18:50:12.848Z,19.00
2019-05-03T18:52:49.883Z,18.90
2019-05-03T18:55:25.507Z,18.90
2019-05-03T18:58:00.937Z,18.90
2019-05-03T19:00:36.932Z,19.00
2019-05-03T19:03:15.280Z,18.90
2019-05-03T19:05:55.889Z,19.00
2019-05-03T19:08:35.659Z,19.10
2019-05-03T19:11:12.278Z,19.10
2019-05-03T19:14:08.815Z,19.10
2019-05-03T19:16:54.453Z,19.10
2019-05-03T19:19:31.121Z,19.20
2019-05-03T19:22:08.555Z,19.20
2019-05-03T19:24:45.529Z,19.00
2019-05-03T19:27:24.961Z,19.20
2019-05-03T19:30:01.618Z,19.20
2019-05-03T19:32:37.760Z,19.20
2019-05-03T19:35:15.546Z,19.20
2019-05-03T19:37:50.212Z,19.20
2019-05-03T19:40:25.623Z,19.00
2019-05-03T19:43:02.749Z,19.10
2019-05-03T19:45:39.337Z,19.20
2019-05-03T19:48:16.834Z,19.30
2019-05-03T19:50:50.070Z,19.10
2019-05-03T19:53:35.904Z,19.00
2019-05-03T19:56:10.930Z,18.90
2019-05-03T19:58:47.108Z,18.80
2019-05-03T20:01:30.981Z,18.80
2019-05-03T20:04:16.432Z,18.60
2019-05-03T20:06:57.287Z,18.70
2019-05-03T20:09:35.058Z,18.70
2019-05-03T20:12:11.986Z,18.80
2019-05-03T20:14:46.120Z,18.90
2019-05-03T20:17:21.136Z,18.70
2019-05-03T20:19:58.486Z,18.70
2019-05-03T20:22:35.813Z,18.60
2019-05-03T20:25:11.359Z,18.50
2019-05-03T20:27:46.778Z,18.30
2019-05-03T20:30:23.031Z,18.10
2019-05-03T20:32:58.376Z,18.20
2019-05-03T20:35:35.665Z,18.30
2019-05-03T20:38:11.179Z,18.10
2019-05-03T20:40:46.960Z,18.10
2019-05-03T20:43:23.517Z,18.10
2019-05-03T20:46:04.941Z,18.00
2019-05-03T20:48:40.210Z,18.10
2019-05-03T20:51:15.565Z,18.10
2019-05-03T20:53:50.846Z,18.10
2019-05-03T20:56:26.288Z,18.00
2019-05-03T20:59:05.340Z,17.90
2019-05-03T21:01:41.448Z,17.80
2019-05-03T21:04:17.699Z,17.80
2019-05-03T21:06:55.082Z,17.70
2019-05-03T21:09:29.736Z,17.60
2019-05-03T21:12:05.435Z,17.50
2019-05-03T21:14:40.746Z,17.50
2019-05-03T21:17:17.215Z,17.50
2019-05-03T21:19:56.665Z,17.40
2019-05-03T21:22:35.264Z,17.30
2019-05-03T21:25:11.434Z,17.30
2019-05-03T21:27:46.865Z,17.30
2019-05-03T21:30:22.369Z,17.20
2019-05-03T21:32:58.219Z,17.20
2019-05-03T21:35:41.504Z,17.20
2019-05-03T21:38:10.226Z,17.10
2019-05-03T21:40:45.469Z,17.10
2019-05-03T21:43:22.259Z,17.00
2019-05-03T21:46:01.259Z,17.00
2019-05-03T21:48:56.290Z,17.10
2019-05-03T21:51:31.636Z,17.10
2019-05-03T21:54:07.483Z,17.10
2019-05-03T21:56:44.558Z,17.10
2019-05-03T21:59:20.659Z,17.00
2019-05-03T22:01:56.165Z,17.10
2019-05-03T22:04:35.032Z,17.00
2019-05-03T22:07:09.387Z,17.00
2019-05-03T22:09:45.400Z,17.20
2019-05-03T22:12:20.764Z,17.10
2019-05-03T22:14:57.325Z,17.20
2019-05-03T22:17:44.644Z,17.20
2019-05-03T22:20:26.793Z,17.30
2019-05-03T22:23:05.937Z,17.30
2019-05-03T22:25:42.524Z,17.40
2019-05-03T22:28:19.401Z,17.60
2019-05-03T22:30:54.622Z,17.90
2019-05-03T22:33:29.440Z,18.20
2019-05-03T22:36:08.513Z,18.50
2019-05-03T22:38:41.437Z,18.60
2019-05-03T22:41:17.664Z,18.90
2019-05-03T22:43:54.694Z,18.90
2019-05-03T22:46:28.507Z,19.10
2019-05-03T22:49:04.903Z,19.30
2019-05-03T22:51:40.226Z,19.30
2019-05-03T22:54:15.693Z,19.40
2019-05-03T22:56:51.227Z,19.50
2019-05-03T22:59:26.562Z,19.60
2019-05-03T23:02:04.578Z,19.60
2019-05-03T23:04:44.806Z,19.70
2019-05-03T23:07:19.617Z,19.60
2019-05-03T23:09:55.130Z,19.70
2019-05-03T23:12:31.148Z,19.80
2019-05-03T23:15:07.937Z,19.80
2019-05-03T23:17:45.263Z,19.90
2019-05-03T23:20:38.020Z,19.90
2019-05-03T23:23:14.539Z,20.10
2019-05-03T23:25:49.815Z,20.30
2019-05-03T23:28:28.360Z,20.50
2019-05-03T23:31:05.399Z,20.50
2019-05-03T23:33:41.558Z,20.60
2019-05-03T23:36:18.244Z,20.80
2019-05-03T23:38:56.865Z,20.80
2019-05-03T23:41:32.379Z,20.80
2019-05-03T23:44:08.627Z,20.90
2019-05-03T23:46:48.201Z,21.00
2019-05-03T23:49:25.041Z,21.00
2019-05-03T23:52:01.100Z,21.10
2019-05-03T23:54:36.526Z,21.30
2019-05-03T23:57:12.055Z,21.20
2019-05-03T23:59:48.661Z,21.30
